createdAt,value
2019-02-16T00:01:15.133Z,6.27
2019-02-16T00:03:43.404Z,5.37
2019-02-16T00:06:11.399Z,5.07
2019-02-16T00:08:41.416Z,5.10
2019-02-16T00:11:09.781Z,5.40
2019-02-16T00:13:37.915Z,6.23
2019-02-16T00:16:05.960Z,5.53
2019-02-16T00:18:33.940Z,6.03
2019-02-16T00:21:04.307Z,4.77
2019-02-16T00:23:31.783Z,5.37
2019-02-16T00:25:59.821Z,6.60
2019-02-16T00:28:31.061Z,6.83
2019-02-16T00:30:59.072Z,4.27
2019-02-16T00:33:26.994Z,4.63
2019-02-16T00:35:55.857Z,4.57
2019-02-16T00:38:23.928Z,5.07
2019-02-16T00:40:51.929Z,6.10
2019-02-16T00:43:20.069Z,5.83
2019-02-16T00:45:48.044Z,7.57
2019-02-16T00:48:16.072Z,7.87
2019-02-16T00:50:44.040Z,6.60
2019-02-16T00:53:11.944Z,5.30
2019-02-16T00:55:40.313Z,9.17
2019-02-16T00:58:08.269Z,6.90
2019-02-16T01:00:36.281Z,10.30
2019-02-16T01:03:05.133Z,7.97
2019-02-16T01:05:33.672Z,6.33
2019-02-16T01:08:01.691Z,8.83
2019-02-16T01:10:29.708Z,8.47
2019-02-16T01:12:57.717Z,8.03
2019-02-16T01:15:25.752Z,7.50
2019-02-16T01:17:53.793Z,7.60
2019-02-16T01:20:21.791Z,7.50
2019-02-16T01:22:49.752Z,8.47
2019-02-16T01:25:17.848Z,7.10
2019-02-16T01:27:45.902Z,9.10
2019-02-16T01:30:14.249Z,9.33
2019-02-16T01:32:42.759Z,8.60
2019-02-16T01:35:11.067Z,10.37
2019-02-16T01:37:39.078Z,11.83
2019-02-16T01:40:08.820Z,9.07
2019-02-16T01:42:36.759Z,8.83
2019-02-16T01:45:04.913Z,8.33
2019-02-16T01:47:32.972Z,10.97
2019-02-16T01:50:01.002Z,10.67
2019-02-16T01:52:28.936Z,8.80
2019-02-16T01:54:57.449Z,10.50
2019-02-16T01:57:25.408Z,9.23
2019-02-16T01:59:53.420Z,10.17
2019-02-16T02:02:21.439Z,9.90
2019-02-16T02:04:49.403Z,10.77
2019-02-16T02:07:17.364Z,12.20
2019-02-16T02:09:45.396Z,9.27
2019-02-16T02:12:13.545Z,9.87
2019-02-16T02:14:41.586Z,12.27
2019-02-16T02:17:09.724Z,10.57
2019-02-16T02:19:37.788Z,9.57
2019-02-16T02:22:05.767Z,9.03
2019-02-16T02:24:33.824Z,9.40
2019-02-16T02:27:01.834Z,9.23
2019-02-16T02:29:29.832Z,10.73
2019-02-16T02:31:57.804Z,11.73
2019-02-16T02:34:25.811Z,10.43
2019-02-16T02:36:53.761Z,9.67
2019-02-16T02:39:21.686Z,9.60
2019-02-16T02:41:49.966Z,10.57
2019-02-16T02:44:17.971Z,11.50
2019-02-16T02:46:46.411Z,8.80
2019-02-16T02:49:14.506Z,10.00
2019-02-16T02:51:51.731Z,9.77
2019-02-16T02:54:12.248Z,9.40
2019-02-16T02:56:40.258Z,8.20
2019-02-16T02:59:08.293Z,11.37
2019-02-16T03:01:36.342Z,10.13
2019-02-16T03:04:04.436Z,9.10
2019-02-16T03:06:35.992Z,10.63
2019-02-16T03:09:05.405Z,9.33
2019-02-16T03:11:33.435Z,9.73
2019-02-16T03:14:01.406Z,11.20
2019-02-16T03:16:29.370Z,9.73
2019-02-16T03:18:57.435Z,9.90
2019-02-16T03:21:25.474Z,9.33
2019-02-16T03:23:53.595Z,10.03
2019-02-16T03:26:46.979Z,10.67
2019-02-16T03:29:43.358Z,12.07
2019-02-16T03:32:30.504Z,9.70
2019-02-16T03:35:07.033Z,10.73
2019-02-16T03:38:01.438Z,10.00
2019-02-16T03:40:30.180Z,11.20
2019-02-16T03:42:58.181Z,10.20
2019-02-16T03:45:26.216Z,8.50
2019-02-16T03:47:54.275Z,10.47
2019-02-16T03:50:22.292Z,9.70
2019-02-16T03:52:50.323Z,10.60
2019-02-16T03:55:18.341Z,8.50
2019-02-16T03:57:46.483Z,8.47
2019-02-16T04:00:14.503Z,10.63
2019-02-16T04:02:42.475Z,11.30
2019-02-16T04:05:10.454Z,9.43
2019-02-16T04:07:38.484Z,10.40
2019-02-16T04:10:06.562Z,8.97
2019-02-16T04:12:34.556Z,9.30
2019-02-16T04:15:02.599Z,7.90
2019-02-16T04:17:30.767Z,9.07
2019-02-16T04:19:58.812Z,9.73
2019-02-16T04:22:26.889Z,9.87
2019-02-16T04:24:54.929Z,10.93
2019-02-16T04:27:23.080Z,8.47
2019-02-16T04:29:51.157Z,9.77
2019-02-16T04:32:19.537Z,10.77
2019-02-16T04:34:47.667Z,8.93
2019-02-16T04:37:15.646Z,9.90
2019-02-16T04:39:43.719Z,9.77
2019-02-16T04:42:11.756Z,8.53
2019-02-16T04:44:39.887Z,9.30
2019-02-16T04:47:07.892Z,9.03
2019-02-16T04:49:36.010Z,8.63
2019-02-16T04:52:04.009Z,8.00
2019-02-16T04:54:32.048Z,9.13
2019-02-16T04:57:00.045Z,9.33
2019-02-16T04:59:28.206Z,9.13
2019-02-16T05:01:56.307Z,12.30
2019-02-16T05:04:24.327Z,9.00
2019-02-16T05:06:52.340Z,8.07
2019-02-16T05:09:20.326Z,10.53
2019-02-16T05:11:48.659Z,7.57
2019-02-16T05:14:16.872Z,7.93
2019-02-16T05:16:45.392Z,8.97
2019-02-16T05:19:13.396Z,8.93
2019-02-16T05:21:41.494Z,10.03
2019-02-16T05:24:09.460Z,8.17
2019-02-16T05:26:37.415Z,9.70
2019-02-16T05:29:05.382Z,8.70
2019-02-16T05:31:33.397Z,8.47
2019-02-16T05:34:01.400Z,8.17
2019-02-16T05:36:29.511Z,7.77
2019-02-16T05:38:57.564Z,8.33
2019-02-16T05:41:25.533Z,8.40
2019-02-16T05:43:53.637Z,7.67
2019-02-16T05:46:21.669Z,8.90
2019-02-16T05:48:49.692Z,7.03
2019-02-16T05:51:18.050Z,9.43
2019-02-16T05:53:46.061Z,9.40
2019-02-16T05:56:13.988Z,9.53
2019-02-16T05:58:41.929Z,7.33
2019-02-16T06:01:09.987Z,7.67
2019-02-16T06:03:38.031Z,10.13
2019-02-16T06:06:06.028Z,8.07
2019-02-16T06:08:34.078Z,9.17
2019-02-16T06:11:02.158Z,8.60
2019-02-16T06:13:30.481Z,8.13
2019-02-16T06:15:58.498Z,7.17
2019-02-16T06:18:26.450Z,7.93
2019-02-16T06:20:54.484Z,8.67
2019-02-16T06:23:22.554Z,7.77
2019-02-16T06:25:50.627Z,7.63
2019-02-16T06:28:18.710Z,8.43
2019-02-16T06:30:46.723Z,8.13
2019-02-16T06:33:14.864Z,7.50
2019-02-16T06:36:01.891Z,9.37
2019-02-16T06:38:29.975Z,11.47
2019-02-16T06:40:58.016Z,8.47
2019-02-16T06:43:26.131Z,9.03
2019-02-16T06:45:54.103Z,8.60
2019-02-16T06:48:22.039Z,8.63
2019-02-16T06:50:50.109Z,8.50
2019-02-16T06:53:18.166Z,8.67
2019-02-16T06:56:05.160Z,8.77
2019-02-16T06:58:33.311Z,8.47
2019-02-16T07:01:01.272Z,9.47
2019-02-16T07:03:29.296Z,8.60
2019-02-16T07:05:57.332Z,8.43
2019-02-16T07:08:25.270Z,8.27
2019-02-16T07:10:53.225Z,11.37
2019-02-16T07:13:21.228Z,8.83
2019-02-16T07:16:08.197Z,9.80
2019-02-16T07:19:10.122Z,7.90
2019-02-16T07:21:38.641Z,7.97
2019-02-16T07:24:06.670Z,7.93
2019-02-16T07:26:34.579Z,8.00
2019-02-16T07:29:02.648Z,9.07
2019-02-16T07:31:30.693Z,10.23
2019-02-16T07:33:58.734Z,9.10
2019-02-16T07:36:26.841Z,10.20
2019-02-16T07:38:54.848Z,8.63
2019-02-16T07:41:22.892Z,7.67
2019-02-16T07:44:08.309Z,7.50
2019-02-16T07:46:50.738Z,7.73
2019-02-16T07:49:26.019Z,8.53
2019-02-16T07:52:13.375Z,8.63
2019-02-16T07:55:06.200Z,9.47
2019-02-16T07:57:48.953Z,9.23
2019-02-16T08:00:37.256Z,8.30
2019-02-16T08:03:19.789Z,7.87
2019-02-16T08:05:54.303Z,6.23
2019-02-16T08:08:41.276Z,8.20
2019-02-16T08:11:30.348Z,8.73
2019-02-16T08:14:14.180Z,7.37
2019-02-16T08:16:59.791Z,6.60
2019-02-16T08:19:56.173Z,7.67
2019-02-16T08:22:40.210Z,6.53
2019-02-16T08:25:19.925Z,6.77
2019-02-16T08:28:06.941Z,7.10
2019-02-16T08:31:06.247Z,6.53
2019-02-16T08:33:56.294Z,6.13
2019-02-16T08:36:54.699Z,6.13
2019-02-16T08:39:53.745Z,9.77
2019-02-16T08:42:45.904Z,6.40
2019-02-16T08:45:26.488Z,7.37
2019-02-16T08:48:03.292Z,7.10
2019-02-16T08:50:40.676Z,6.97
2019-02-16T08:53:27.643Z,7.53
2019-02-16T08:56:02.951Z,6.97
2019-02-16T08:58:48.856Z,7.50
2019-02-16T09:01:38.720Z,7.97
2019-02-16T09:04:29.727Z,7.83
2019-02-16T09:07:10.092Z,7.37
2019-02-16T09:10:06.081Z,8.40
2019-02-16T09:12:45.229Z,8.77
2019-02-16T09:15:37.330Z,7.17
2019-02-16T09:18:33.128Z,7.93
2019-02-16T09:21:26.221Z,6.90
2019-02-16T09:23:59.680Z,6.97
2019-02-16T09:26:38.258Z,8.10
2019-02-16T09:29:25.268Z,7.67
2019-02-16T09:32:18.239Z,7.67
2019-02-16T09:35:03.809Z,8.63
2019-02-16T09:37:50.887Z,8.27
2019-02-16T09:40:36.399Z,7.07
2019-02-16T09:43:19.287Z,7.50
2019-02-16T09:46:03.892Z,8.63
2019-02-16T09:48:54.719Z,11.70
2019-02-16T09:51:41.755Z,7.17
2019-02-16T09:54:19.856Z,7.67
2019-02-16T09:56:55.892Z,12.27
2019-02-16T09:59:52.107Z,8.77
2019-02-16T10:02:47.545Z,10.67
2019-02-16T10:05:32.291Z,9.50
2019-02-16T10:08:28.284Z,8.80
2019-02-16T10:11:17.850Z,8.80
2019-02-16T10:14:01.927Z,8.50
2019-02-16T10:16:48.968Z,7.93
2019-02-16T10:19:34.726Z,6.70
2019-02-16T10:22:24.332Z,8.47
2019-02-16T10:25:09.753Z,9.23
2019-02-16T10:28:08.645Z,8.40
2019-02-16T10:31:00.748Z,9.57
2019-02-16T10:33:59.720Z,8.50
2019-02-16T10:36:38.876Z,7.87
2019-02-16T10:39:35.654Z,7.87
2019-02-16T10:42:28.299Z,8.90
2019-02-16T10:45:06.877Z,7.60
2019-02-16T10:47:59.604Z,7.50
2019-02-16T10:50:35.028Z,6.40
2019-02-16T10:53:23.222Z,10.00
2019-02-16T10:56:18.956Z,7.60
2019-02-16T10:59:00.068Z,10.67
2019-02-16T11:01:56.217Z,8.37
2019-02-16T11:04:43.282Z,8.47
2019-02-16T11:07:24.953Z,8.37
2019-02-16T11:09:58.138Z,7.67
2019-02-16T11:12:57.527Z,9.63
2019-02-16T11:15:45.569Z,7.57
2019-02-16T11:18:38.691Z,8.37
2019-02-16T11:21:31.702Z,8.60
2019-02-16T11:24:21.957Z,11.27
2019-02-16T11:27:05.757Z,7.57
2019-02-16T11:29:48.410Z,8.43
2019-02-16T11:32:50.342Z,9.23
2019-02-16T11:35:34.098Z,9.57
2019-02-16T11:38:23.956Z,9.47
2019-02-16T11:41:08.906Z,10.70
2019-02-16T11:43:58.984Z,9.93
2019-02-16T11:47:01.682Z,9.60
2019-02-16T11:49:50.896Z,12.07
2019-02-16T11:52:26.764Z,11.90
2019-02-16T11:55:13.847Z,9.60
2019-02-16T11:57:48.504Z,10.73
2019-02-16T12:00:28.901Z,11.83
2019-02-16T12:03:05.372Z,13.83
2019-02-16T12:05:47.322Z,10.03
2019-02-16T12:08:45.554Z,12.30
2019-02-16T12:11:41.510Z,13.47
2019-02-16T12:14:22.580Z,11.47
2019-02-16T12:17:09.618Z,12.20
2019-02-16T12:19:53.266Z,12.23
2019-02-16T12:22:34.067Z,13.07
2019-02-16T12:25:23.780Z,12.97
2019-02-16T12:28:04.323Z,14.43
2019-02-16T12:30:46.510Z,14.20
2019-02-16T12:33:45.476Z,14.87
2019-02-16T12:36:35.803Z,13.27
2019-02-16T12:39:27.657Z,14.67
2019-02-16T12:42:08.207Z,15.97
2019-02-16T12:44:53.865Z,14.53
2019-02-16T12:47:43.960Z,13.23
2019-02-16T12:50:36.619Z,12.27
2019-02-16T12:53:21.376Z,11.20
2019-02-16T12:56:09.481Z,12.67
2019-02-16T12:58:41.620Z,12.77
2019-02-16T13:01:28.702Z,12.10
2019-02-16T13:04:15.183Z,12.80
2019-02-16T13:07:01.714Z,13.03
2019-02-16T13:12:35.395Z,14.70
2019-02-16T13:15:28.555Z,12.17
2019-02-16T13:18:07.517Z,12.67
2019-02-16T13:21:04.688Z,12.30
2019-02-16T13:23:55.167Z,11.53
2019-02-16T13:26:40.778Z,11.87
2019-02-16T13:29:22.403Z,12.27
2019-02-16T13:32:18.323Z,12.57
2019-02-16T13:35:07.380Z,13.67
2019-02-16T13:37:51.503Z,13.70
2019-02-16T13:40:40.228Z,11.73
2019-02-16T13:43:24.556Z,13.27
2019-02-16T13:46:24.545Z,13.53
2019-02-16T13:49:15.123Z,11.20
2019-02-16T13:52:01.528Z,11.80
2019-02-16T13:54:51.232Z,13.30
2019-02-16T13:57:36.819Z,14.63
2019-02-16T14:00:11.572Z,12.63
2019-02-16T14:02:57.494Z,12.30
2019-02-16T14:05:46.023Z,15.83
2019-02-16T14:08:31.855Z,14.33
2019-02-16T14:11:24.815Z,11.70
2019-02-16T14:14:20.859Z,11.83
2019-02-16T14:16:57.461Z,13.03
2019-02-16T14:19:25.503Z,13.83
2019-02-16T14:21:53.475Z,13.57
2019-02-16T14:24:40.210Z,13.00
2019-02-16T14:27:08.207Z,12.10
2019-02-16T14:29:36.216Z,14.27
2019-02-16T14:32:04.269Z,14.13
2019-02-16T14:34:32.360Z,13.17
2019-02-16T14:37:02.135Z,11.83
2019-02-16T14:39:32.967Z,16.07
2019-02-16T14:42:01.029Z,11.87
2019-02-16T14:44:29.010Z,10.90
2019-02-16T14:46:58.161Z,14.17
2019-02-16T14:49:26.210Z,11.20
2019-02-16T14:51:54.535Z,14.43
2019-02-16T14:54:23.591Z,11.80
2019-02-16T14:56:53.575Z,12.80
2019-02-16T14:59:24.316Z,13.20
2019-02-16T15:01:52.305Z,12.77
2019-02-16T15:04:20.330Z,11.33
2019-02-16T15:06:48.394Z,11.37
2019-02-16T15:09:16.526Z,11.50
2019-02-16T15:11:44.651Z,12.93
2019-02-16T15:14:12.588Z,12.27
2019-02-16T15:16:40.647Z,13.07
2019-02-16T15:19:08.739Z,12.47
2019-02-16T15:21:39.607Z,11.97
2019-02-16T15:24:07.646Z,11.37
2019-02-16T15:26:37.901Z,11.20
2019-02-16T15:29:08.936Z,12.57
2019-02-16T15:31:36.904Z,13.33
2019-02-16T15:34:04.948Z,13.53
2019-02-16T15:36:33.024Z,19.35
2019-02-16T15:39:04.719Z,14.47
2019-02-16T15:41:32.765Z,16.67
2019-02-16T15:44:00.845Z,18.63
2019-02-16T15:46:30.872Z,15.63
2019-02-16T15:48:58.988Z,19.10
2019-02-16T15:51:29.780Z,21.63
2019-02-16T15:53:57.819Z,20.23
2019-02-16T15:56:25.892Z,20.57
2019-02-16T15:58:54.603Z,20.03
2019-02-16T16:01:22.647Z,22.20
2019-02-16T16:03:52.936Z,19.53
2019-02-16T16:06:23.919Z,19.60
2019-02-16T16:09:06.996Z,23.53
2019-02-16T16:11:50.449Z,23.00
2019-02-16T16:14:31.480Z,23.00
2019-02-16T16:17:16.800Z,21.97
2019-02-16T16:19:51.725Z,23.63
2019-02-16T16:22:38.745Z,20.87
2019-02-16T16:25:24.281Z,23.83
2019-02-16T16:28:05.004Z,23.90
2019-02-16T16:30:41.232Z,22.37
2019-02-16T16:33:18.087Z,21.97
2019-02-16T16:36:07.728Z,25.73
2019-02-16T16:39:00.169Z,24.10
2019-02-16T16:41:38.224Z,23.47
2019-02-16T16:44:23.821Z,23.47
2019-02-16T16:47:14.030Z,20.97
2019-02-16T16:50:03.837Z,26.83
2019-02-16T16:52:46.526Z,24.47
2019-02-16T16:55:20.422Z,23.10
2019-02-16T16:58:00.748Z,21.63
2019-02-16T17:00:53.762Z,25.40
2019-02-16T17:03:35.503Z,25.53
2019-02-16T17:06:28.555Z,24.83
2019-02-16T17:09:15.774Z,28.00
2019-02-16T17:12:14.667Z,24.13
2019-02-16T17:15:10.443Z,24.07
2019-02-16T17:18:02.775Z,25.63
2019-02-16T17:21:01.977Z,31.07
2019-02-16T17:23:47.976Z,27.07
2019-02-16T17:26:37.772Z,25.87
2019-02-16T17:29:22.379Z,25.37
2019-02-16T17:32:08.783Z,26.03
2019-02-16T17:34:58.643Z,23.33
2019-02-16T17:37:33.506Z,24.30
2019-02-16T17:40:20.629Z,28.67
2019-02-16T17:43:19.896Z,28.73
2019-02-16T17:46:01.967Z,29.27
2019-02-16T17:48:48.907Z,25.27
2019-02-16T17:51:40.612Z,26.63
2019-02-16T17:54:39.676Z,27.07
2019-02-16T17:57:25.782Z,26.57
2019-02-16T18:00:15.571Z,26.60
2019-02-16T18:03:01.176Z,26.00
2019-02-16T18:05:54.140Z,25.73
2019-02-16T18:08:53.129Z,30.57
2019-02-16T18:11:38.788Z,28.27
2019-02-16T18:14:17.935Z,25.43
2019-02-16T18:17:10.597Z,25.83
2019-02-16T18:19:57.673Z,26.60
2019-02-16T18:22:34.986Z,28.60
2019-02-16T18:25:20.527Z,23.57
2019-02-16T18:28:07.622Z,23.43
2019-02-16T18:30:47.012Z,28.23
2019-02-16T18:33:45.852Z,25.70
2019-02-16T18:36:31.480Z,28.53
2019-02-16T18:39:27.670Z,27.47
2019-02-16T18:42:06.989Z,24.47
2019-02-16T18:44:43.186Z,26.50
2019-02-16T18:47:29.593Z,27.00
2019-02-16T18:50:16.600Z,27.93
2019-02-16T18:52:52.369Z,28.10
2019-02-16T18:55:39.390Z,30.23
2019-02-16T18:58:33.710Z,31.07
2019-02-16T19:01:17.907Z,26.37
2019-02-16T19:04:04.944Z,26.03
2019-02-16T19:06:42.702Z,26.47
2019-02-16T19:09:17.804Z,26.70
2019-02-16T19:11:53.996Z,26.53
2019-02-16T19:14:41.002Z,30.33
2019-02-16T19:17:26.429Z,29.73
2019-02-16T19:20:16.194Z,27.97
2019-02-16T19:23:01.616Z,31.40
2019-02-16T19:25:34.515Z,26.70
2019-02-16T19:28:19.784Z,29.80
2019-02-16T19:31:01.408Z,33.30
2019-02-16T19:33:39.655Z,30.60
2019-02-16T19:36:32.477Z,26.10
2019-02-16T19:39:12.051Z,27.90
2019-02-16T19:42:07.968Z,29.43
2019-02-16T19:44:53.785Z,22.53
2019-02-16T19:47:33.903Z,30.07
2019-02-16T19:50:22.217Z,25.80
2019-02-16T19:53:04.451Z,29.23
2019-02-16T19:55:45.972Z,28.50
2019-02-16T19:58:27.303Z,28.47
2019-02-16T20:01:12.844Z,24.40
2019-02-16T20:04:08.810Z,25.70
2019-02-16T20:06:58.565Z,27.83
2019-02-16T20:09:43.436Z,30.20
2019-02-16T20:12:28.848Z,28.30
2019-02-16T20:15:14.446Z,30.17
2019-02-16T20:18:16.325Z,34.57
2019-02-16T20:21:03.346Z,27.97
2019-02-16T20:23:59.234Z,32.50
2019-02-16T20:26:45.091Z,31.47
2019-02-16T20:29:24.045Z,28.20
2019-02-16T20:32:02.631Z,35.57
2019-02-16T20:34:41.114Z,29.57
2019-02-16T20:37:26.792Z,27.43
2019-02-16T20:40:08.197Z,31.77
2019-02-16T20:42:47.988Z,35.63
2019-02-16T20:45:21.082Z,33.20
2019-02-16T20:48:15.268Z,30.50
2019-02-16T20:51:02.242Z,30.53
2019-02-16T20:53:57.957Z,26.23
2019-02-16T20:56:40.898Z,32.53
2019-02-16T20:59:27.881Z,33.73
2019-02-16T21:02:30.112Z,28.83
2019-02-16T21:05:04.874Z,29.50
2019-02-16T21:07:52.096Z,28.70
2019-02-16T21:10:39.179Z,31.17
2019-02-16T21:13:14.929Z,30.10
2019-02-16T21:16:02.080Z,31.50
2019-02-16T21:18:49.096Z,31.77
2019-02-16T21:21:28.510Z,25.27
2019-02-16T21:24:08.709Z,26.63
2019-02-16T21:26:58.521Z,29.17
2019-02-16T21:29:48.362Z,29.13
2019-02-16T21:32:36.675Z,32.33
2019-02-16T21:35:23.840Z,26.53
2019-02-16T21:38:07.743Z,25.73
2019-02-16T21:40:51.854Z,27.37
2019-02-16T21:43:48.007Z,28.03
2019-02-16T21:46:45.403Z,29.87
2019-02-16T21:49:25.944Z,25.73
2019-02-16T21:52:25.342Z,31.57
2019-02-16T21:55:23.679Z,30.60
2019-02-16T21:58:10.836Z,31.97
2019-02-16T22:00:57.870Z,27.03
2019-02-16T22:03:43.568Z,26.13
2019-02-16T22:06:30.002Z,30.43
2019-02-16T22:09:13.973Z,28.33
2019-02-16T22:12:00.378Z,28.47
2019-02-16T22:14:28.419Z,28.63
2019-02-16T22:16:56.465Z,30.43
2019-02-16T22:19:24.520Z,29.30
2019-02-16T22:21:52.564Z,24.90
2019-02-16T22:24:20.669Z,26.97
2019-02-16T22:26:48.723Z,28.17
2019-02-16T22:29:16.835Z,35.50
2019-02-16T22:31:44.907Z,27.10
2019-02-16T22:34:13.000Z,25.33
2019-02-16T22:36:40.990Z,26.00
2019-02-16T22:39:08.987Z,30.23
2019-02-16T22:41:37.311Z,25.73
2019-02-16T22:44:07.537Z,25.87
2019-02-16T22:46:35.498Z,29.00
2019-02-16T22:49:03.530Z,26.03
2019-02-16T22:51:31.495Z,26.60
2019-02-16T22:53:59.568Z,24.23
2019-02-16T22:56:27.536Z,25.40
2019-02-16T22:58:55.470Z,23.60
2019-02-16T23:01:25.364Z,21.90
2019-02-16T23:03:53.447Z,23.80
2019-02-16T23:06:24.058Z,24.43
2019-02-16T23:08:53.278Z,22.10
2019-02-16T23:11:21.407Z,21.20
2019-02-16T23:13:49.464Z,23.13
2019-02-16T23:16:17.563Z,21.03
2019-02-16T23:18:45.593Z,22.77
2019-02-16T23:21:13.780Z,19.17
2019-02-16T23:23:44.693Z,23.23
2019-02-16T23:26:16.101Z,18.43
2019-02-16T23:28:44.144Z,20.87
2019-02-16T23:31:12.288Z,23.13
2019-02-16T23:33:40.350Z,24.23
2019-02-16T23:36:08.354Z,23.73
2019-02-16T23:38:37.503Z,22.77
2019-02-16T23:41:06.419Z,23.47
2019-02-16T23:43:34.640Z,22.77
2019-02-16T23:46:02.692Z,21.73
2019-02-16T23:48:31.086Z,18.00
2019-02-16T23:50:59.147Z,18.83
2019-02-16T23:53:30.181Z,19.00
2019-02-16T23:55:58.243Z,17.50
2019-02-16T23:58:26.180Z,17.23
